sensor_id;sensor_type;location;lat;lon;timestamp;pressure;altitude;pressure_sealevel;temperature
49557;BMP280;35462;45.048;7.666;2022-12-15T00:10:09;97787.66;;;5.80
49557;BMP280;35462;45.048;7.666;2022-12-15T00:25:41;97769.69;;;5.75
49557;BMP280;35462;45.048;7.666;2022-12-15T00:41:13;97764.88;;;5.67
49557;BMP280;35462;45.048;7.666;2022-12-15T00:56:29;97772.75;;;5.67
49557;BMP280;35462;45.048;7.666;2022-12-15T01:12:00;97796.81;;;5.62
49557;BMP280;35462;45.048;7.666;2022-12-15T01:27:30;97802.19;;;5.41
49557;BMP280;35462;45.048;7.666;2022-12-15T01:42:47;97811.19;;;5.40
49557;BMP280;35462;45.048;7.666;2022-12-15T01:58:04;97837.53;;;5.26
49557;BMP280;35462;45.048;7.666;2022-12-15T02:13:42;97841.28;;;5.21
49557;BMP280;35462;45.048;7.666;2022-12-15T02:44:47;97862.72;;;5.16
49557;BMP280;35462;45.048;7.666;2022-12-15T03:00:08;97851.09;;;5.14
49557;BMP280;35462;45.048;7.666;2022-12-15T03:15:25;97853.34;;;5.15
49557;BMP280;35462;45.048;7.666;2022-12-15T03:30:41;97829.38;;;5.10
49557;BMP280;35462;45.048;7.666;2022-12-15T03:45:56;97830.88;;;5.11
49557;BMP280;35462;45.048;7.666;2022-12-15T04:16:35;97840.97;;;5.16
49557;BMP280;35462;45.048;7.666;2022-12-15T04:31:52;97849.97;;;5.15
49557;BMP280;35462;45.048;7.666;2022-12-15T04:47:23;97844.69;;;5.18
49557;BMP280;35462;45.048;7.666;2022-12-15T05:02:54;97861.19;;;5.19
49557;BMP280;35462;45.048;7.666;2022-12-15T05:18:24;97867.53;;;5.21
49557;BMP280;35462;45.048;7.666;2022-12-15T05:33:55;97869.00;;;5.26
49557;BMP280;35462;45.048;7.666;2022-12-15T05:49:13;97910.28;;;5.15
49557;BMP280;35462;45.048;7.666;2022-12-15T06:04:29;97893.00;;;5.28
49557;BMP280;35462;45.048;7.666;2022-12-15T06:19:45;97910.22;;;5.32
49557;BMP280;35462;45.048;7.666;2022-12-15T06:35:01;97912.44;;;5.37
49557;BMP280;35462;45.048;7.666;2022-12-15T06:50:19;97950.66;;;5.42
49557;BMP280;35462;45.048;7.666;2022-12-15T07:05:36;97960.47;;;5.31
49557;BMP280;35462;45.048;7.666;2022-12-15T07:20:52;97975.44;;;5.34
49557;BMP280;35462;45.048;7.666;2022-12-15T07:36:08;97988.56;;;5.37
49557;BMP280;35462;45.048;7.666;2022-12-15T07:51:24;97989.22;;;5.59
49557;BMP280;35462;45.048;7.666;2022-12-15T08:06:39;98021.47;;;5.56
49557;BMP280;35462;45.048;7.666;2022-12-15T08:21:55;98022.16;;;5.67
49557;BMP280;35462;45.048;7.666;2022-12-15T08:37:11;98064.50;;;5.79
49557;BMP280;35462;45.048;7.666;2022-12-15T08:52:27;98045.03;;;5.77
49557;BMP280;35462;45.048;7.666;2022-12-15T09:07:43;98016.06;;;5.87
49557;BMP280;35462;45.048;7.666;2022-12-15T09:22:59;98077.53;;;6.04
49557;BMP280;35462;45.048;7.666;2022-12-15T09:38:15;98116.16;;;6.07
49557;BMP280;35462;45.048;7.666;2022-12-15T09:53:33;98091.38;;;6.15
49557;BMP280;35462;45.048;7.666;2022-12-15T10:08:55;98132.66;;;6.11
49557;BMP280;35462;45.048;7.666;2022-12-15T10:24:16;98121.84;;;6.02
49557;BMP280;35462;45.048;7.666;2022-12-15T10:39:38;98125.97;;;5.99
49557;BMP280;35462;45.048;7.666;2022-12-15T10:54:56;98177.38;;;6.00
49557;BMP280;35462;45.048;7.666;2022-12-15T11:10:22;98148.44;;;6.18
49557;BMP280;35462;45.048;7.666;2022-12-15T11:25:42;98078.63;;;6.10
49557;BMP280;35462;45.048;7.666;2022-12-15T11:41:11;98051.59;;;6.13
49557;BMP280;35462;45.048;7.666;2022-12-15T11:56:37;98010.03;;;5.97
49557;BMP280;35462;45.048;7.666;2022-12-15T12:42:48;97987.50;;;6.00
49557;BMP280;35462;45.048;7.666;2022-12-15T13:13:46;97940.28;;;5.89
49557;BMP280;35462;45.048;7.666;2022-12-15T13:29:02;97907.31;;;5.81
49557;BMP280;35462;45.048;7.666;2022-12-15T13:59:43;97924.97;;;5.77
49557;BMP280;35462;45.048;7.666;2022-12-15T14:15:00;97911.88;;;5.74
49557;BMP280;35462;45.048;7.666;2022-12-15T14:30:23;97895.75;;;5.72
49557;BMP280;35462;45.048;7.666;2022-12-15T14:45:39;97881.47;;;5.76
49557;BMP280;35462;45.048;7.666;2022-12-15T15:00:55;97867.97;;;5.74
49557;BMP280;35462;45.048;7.666;2022-12-15T15:16:14;97841.00;;;5.74
49557;BMP280;35462;45.048;7.666;2022-12-15T15:31:35;97820.72;;;5.74
49557;BMP280;35462;45.048;7.666;2022-12-15T15:46:51;97806.09;;;5.70
49557;BMP280;35462;45.048;7.666;2022-12-15T16:02:09;97810.19;;;5.78
49557;BMP280;35462;45.048;7.666;2022-12-15T16:17:25;97801.25;;;5.72
49557;BMP280;35462;45.048;7.666;2022-12-15T16:32:41;97789.22;;;5.71
49557;BMP280;35462;45.048;7.666;2022-12-15T16:47:57;97767.50;;;5.67
49557;BMP280;35462;45.048;7.666;2022-12-15T17:03:14;97766.78;;;5.66
49557;BMP280;35462;45.048;7.666;2022-12-15T17:18:31;97767.81;;;5.76
49557;BMP280;35462;45.048;7.666;2022-12-15T17:33:47;97750.88;;;5.80
49557;BMP280;35462;45.048;7.666;2022-12-15T17:49:03;97811.63;;;5.86
49557;BMP280;35462;45.048;7.666;2022-12-15T18:04:21;97790.22;;;5.84
49557;BMP280;35462;45.048;7.666;2022-12-15T18:19:37;97812.34;;;5.90
49557;BMP280;35462;45.048;7.666;2022-12-15T18:34:53;97800.34;;;5.92
49557;BMP280;35462;45.048;7.666;2022-12-15T18:50:13;97747.84;;;5.85
49557;BMP280;35462;45.048;7.666;2022-12-15T19:05:29;97755.38;;;5.80
49557;BMP280;35462;45.048;7.666;2022-12-15T19:20:47;97751.19;;;5.89
49557;BMP280;35462;45.048;7.666;2022-12-15T19:36:18;97725.41;;;5.77
49557;BMP280;35462;45.048;7.666;2022-12-15T19:51:35;97709.31;;;5.75
49557;BMP280;35462;45.048;7.666;2022-12-15T20:06:51;97724.69;;;5.77
49557;BMP280;35462;45.048;7.666;2022-12-15T20:22:16;97712.97;;;5.85
49557;BMP280;35462;45.048;7.666;2022-12-15T20:37:33;97694.81;;;5.97
49557;BMP280;35462;45.048;7.666;2022-12-15T20:52:50;97688.44;;;5.98
49557;BMP280;35462;45.048;7.666;2022-12-15T21:08:14;97652.66;;;5.78
49557;BMP280;35462;45.048;7.666;2022-12-15T21:23:30;97637.03;;;5.64
49557;BMP280;35462;45.048;7.666;2022-12-15T21:38:48;97647.34;;;5.81
49557;BMP280;35462;45.048;7.666;2022-12-15T21:54:14;97616.50;;;5.89
49557;BMP280;35462;45.048;7.666;2022-12-15T22:09:30;97610.47;;;5.92
49557;BMP280;35462;45.048;7.666;2022-12-15T22:24:46;97610.47;;;5.92
49557;BMP280;35462;45.048;7.666;2022-12-15T22:40:04;97601.44;;;5.93
49557;BMP280;35462;45.048;7.666;2022-12-15T22:55:21;97603.28;;;5.96
49557;BMP280;35462;45.048;7.666;2022-12-15T23:10:37;97587.13;;;5.97
49557;BMP280;35462;45.048;7.666;2022-12-15T23:26:08;97581.25;;;5.90
49557;BMP280;35462;45.048;7.666;2022-12-15T23:41:24;97573.81;;;5.85
49557;BMP280;35462;45.048;7.666;2022-12-15T23:56:39;97567.47;;;5.79
